sensor_id;sensor_type;location;lat;lon;timestamp;pressure;altitude;pressure_sealevel;temperature;humidity
8039;BME280;4062;49.844;8.120;2022-12-16T00:01:25;98340.19;;;13.42;56.64
8039;BME280;4062;49.844;8.120;2022-12-16T00:03:26;98342.84;;;13.42;56.46
8039;BME280;4062;49.844;8.120;2022-12-16T00:05:28;98334.03;;;13.41;56.56
8039;BME280;4062;49.844;8.120;2022-12-16T00:07:29;98334.03;;;13.41;56.53
8039;BME280;4062;49.844;8.120;2022-12-16T00:09:30;98345.50;;;13.42;56.63
8039;BME280;4062;49.844;8.120;2022-12-16T00:11:31;98346.38;;;13.42;56.65
8039;BME280;4062;49.844;8.120;2022-12-16T00:13:33;98348.16;;;13.42;56.65
8039;BME280;4062;49.844;8.120;2022-12-16T00:15:36;98356.97;;;13.42;56.49
8039;BME280;4062;49.844;8.120;2022-12-16T00:17:37;98361.41;;;13.42;56.64
8039;BME280;4062;49.844;8.120;2022-12-16T00:19:39;98355.25;;;13.41;56.63
8039;BME280;4062;49.844;8.120;2022-12-16T00:21:39;98350.88;;;13.40;56.83
8039;BME280;4062;49.844;8.120;2022-12-16T00:23:40;98352.59;;;13.41;56.50
8039;BME280;4062;49.844;8.120;2022-12-16T00:25:43;98347.28;;;13.41;56.49
8039;BME280;4062;49.844;8.120;2022-12-16T00:27:44;98349.94;;;13.41;56.59
8039;BME280;4062;49.844;8.120;2022-12-16T00:29:45;98349.06;;;13.41;56.46
8039;BME280;4062;49.844;8.120;2022-12-16T00:31:45;98353.53;;;13.40;56.95
8039;BME280;4062;49.844;8.120;2022-12-16T00:33:47;98349.06;;;13.41;56.54
8039;BME280;4062;49.844;8.120;2022-12-16T00:35:48;98353.53;;;13.40;56.24
8039;BME280;4062;49.844;8.120;2022-12-16T00:37:48;98347.28;;;13.41;56.49
8039;BME280;4062;49.844;8.120;2022-12-16T00:39:49;98355.25;;;13.41;56.55
8039;BME280;4062;49.844;8.120;2022-12-16T00:41:50;98349.06;;;13.41;56.72
8039;BME280;4062;49.844;8.120;2022-12-16T00:43:51;98353.53;;;13.40;56.53
8039;BME280;4062;49.844;8.120;2022-12-16T00:45:51;98348.22;;;13.40;56.60
8039;BME280;4062;49.844;8.120;2022-12-16T00:47:52;98351.72;;;13.41;56.63
8039;BME280;4062;49.844;8.120;2022-12-16T00:49:53;98349.94;;;13.41;56.57
8039;BME280;4062;49.844;8.120;2022-12-16T00:51:53;98355.34;;;13.40;56.65
8039;BME280;4062;49.844;8.120;2022-12-16T00:53:54;98362.44;;;13.39;56.38
8039;BME280;4062;49.844;8.120;2022-12-16T00:56:07;98366.81;;;13.40;56.53
8039;BME280;4062;49.844;8.120;2022-12-16T00:58:09;98369.47;;;13.40;56.53
8039;BME280;4062;49.844;8.120;2022-12-16T01:00:12;98365.09;;;13.39;56.60
8039;BME280;4062;49.844;8.120;2022-12-16T01:02:13;98363.34;;;13.38;56.61
8039;BME280;4062;49.844;8.120;2022-12-16T01:04:14;98362.44;;;13.39;56.66
8039;BME280;4062;49.844;8.120;2022-12-16T01:06:16;98366.81;;;13.40;56.61
8039;BME280;4062;49.844;8.120;2022-12-16T01:08:17;98366.91;;;13.39;56.48
8039;BME280;4062;49.844;8.120;2022-12-16T01:10:18;98365.97;;;13.40;56.46
8039;BME280;4062;49.844;8.120;2022-12-16T01:12:19;98374.84;;;13.39;56.59
8039;BME280;4062;49.844;8.120;2022-12-16T01:14:20;98386.31;;;13.39;56.48
8039;BME280;4062;49.844;8.120;2022-12-16T01:16:21;98382.81;;;13.39;56.67
8039;BME280;4062;49.844;8.120;2022-12-16T01:18:22;98375.69;;;13.39;56.66
8039;BME280;4062;49.844;8.120;2022-12-16T01:20:23;98381.88;;;13.40;56.65
8039;BME280;4062;49.844;8.120;2022-12-16T01:22:23;98384.53;;;13.40;56.58
8039;BME280;4062;49.844;8.120;2022-12-16T01:24:24;98383.66;;;13.39;56.69
8039;BME280;4062;49.844;8.120;2022-12-16T01:26:25;98388.97;;;13.39;56.67
8039;BME280;4062;49.844;8.120;2022-12-16T01:28:27;98399.56;;;13.39;56.51
8039;BME280;4062;49.844;8.120;2022-12-16T01:30:28;98395.16;;;13.40;56.59
8039;BME280;4062;49.844;8.120;2022-12-16T01:32:29;98400.47;;;13.38;56.61
8039;BME280;4062;49.844;8.120;2022-12-16T01:34:30;98400.47;;;13.38;56.53
8039;BME280;4062;49.844;8.120;2022-12-16T01:36:30;98405.75;;;13.40;56.45
8039;BME280;4062;49.844;8.120;2022-12-16T01:38:31;98404.03;;;13.39;56.58
8039;BME280;4062;49.844;8.120;2022-12-16T01:40:32;98401.38;;;13.39;56.60
8039;BME280;4062;49.844;8.120;2022-12-16T01:42:33;98404.03;;;13.39;56.65
8039;BME280;4062;49.844;8.120;2022-12-16T01:44:35;98408.44;;;13.38;56.53
8039;BME280;4062;49.844;8.120;2022-12-16T01:46:36;98415.50;;;13.39;56.60
8039;BME280;4062;49.844;8.120;2022-12-16T01:48:59;98407.53;;;13.39;56.68
8039;BME280;4062;49.844;8.120;2022-12-16T01:51:06;98407.53;;;13.39;56.64
8039;BME280;4062;49.844;8.120;2022-12-16T01:53:08;98408.44;;;13.38;56.47
8039;BME280;4062;49.844;8.120;2022-12-16T01:55:18;98411.09;;;13.38;56.42
8039;BME280;4062;49.844;8.120;2022-12-16T01:57:26;98409.34;;;13.39;56.65
8039;BME280;4062;49.844;8.120;2022-12-16T01:59:30;98406.69;;;13.39;56.59
8039;BME280;4062;49.844;8.120;2022-12-16T02:01:33;98404.06;;;13.37;56.50
8039;BME280;4062;49.844;8.120;2022-12-16T02:03:35;98412.00;;;13.39;56.52
8039;BME280;4062;49.844;8.120;2022-12-16T02:05:39;98418.16;;;13.39;56.55
8039;BME280;4062;49.844;8.120;2022-12-16T02:07:41;98420.84;;;13.38;56.59
8039;BME280;4062;49.844;8.120;2022-12-16T02:09:41;98416.41;;;13.38;56.56
8039;BME280;4062;49.844;8.120;2022-12-16T02:17:02;98422.63;;;13.37;57.07
8039;BME280;4062;49.844;8.120;2022-12-16T02:19:42;98414.66;;;13.39;56.54
8039;BME280;4062;49.844;8.120;2022-12-16T02:22:19;98416.50;;;13.37;56.64
8039;BME280;4062;49.844;8.120;2022-12-16T02:27:37;98416.50;;;13.37;56.56
8039;BME280;4062;49.844;8.120;2022-12-16T02:30:17;98417.34;;;13.37;56.71
8039;BME280;4062;49.844;8.120;2022-12-16T02:32:36;98419.06;;;13.38;56.65
8039;BME280;4062;49.844;8.120;2022-12-16T02:35:08;98413.84;;;13.37;56.55
8039;BME280;4062;49.844;8.120;2022-12-16T02:37:32;98418.25;;;13.36;56.61
8039;BME280;4062;49.844;8.120;2022-12-16T02:39:38;98407.66;;;13.36;56.63
8039;BME280;4062;49.844;8.120;2022-12-16T02:42:29;98412.03;;;13.37;56.50
8039;BME280;4062;49.844;8.120;2022-12-16T02:44:52;98413.84;;;13.37;56.68
8039;BME280;4062;49.844;8.120;2022-12-16T02:46:57;98411.19;;;13.37;56.70
8039;BME280;4062;49.844;8.120;2022-12-16T02:51:14;98402.34;;;13.36;56.66
8039;BME280;4062;49.844;8.120;2022-12-16T02:53:17;98405.88;;;13.37;56.66
8039;BME280;4062;49.844;8.120;2022-12-16T02:55:19;98402.34;;;13.36;56.75
8039;BME280;4062;49.844;8.120;2022-12-16T03:00:05;98408.53;;;13.37;56.63
8039;BME280;4062;49.844;8.120;2022-12-16T03:02:18;98408.53;;;13.37;56.55
8039;BME280;4062;49.844;8.120;2022-12-16T03:06:39;98413.84;;;13.37;56.60
8039;BME280;4062;49.844;8.120;2022-12-16T03:08:48;98417.41;;;13.36;56.61
8039;BME280;4062;49.844;8.120;2022-12-16T03:10:58;98418.25;;;13.36;56.71
8039;BME280;4062;49.844;8.120;2022-12-16T03:13:00;98419.13;;;13.37;56.64
8039;BME280;4062;49.844;8.120;2022-12-16T03:15:03;98415.63;;;13.36;56.54
8039;BME280;4062;49.844;8.120;2022-12-16T03:17:05;98423.56;;;13.36;56.53
8039;BME280;4062;49.844;8.120;2022-12-16T03:19:08;98417.41;;;13.36;56.69
8039;BME280;4062;49.844;8.120;2022-12-16T03:21:12;98422.72;;;13.36;56.57
8039;BME280;4062;49.844;8.120;2022-12-16T03:23:20;98422.72;;;13.36;56.78
8039;BME280;4062;49.844;8.120;2022-12-16T03:25:24;98420.91;;;13.36;56.36
8039;BME280;4062;49.844;8.120;2022-12-16T03:30:08;98423.66;;;13.35;56.69
8039;BME280;4062;49.844;8.120;2022-12-16T03:32:29;98432.50;;;13.35;56.47
8039;BME280;4062;49.844;8.120;2022-12-16T03:37:32;98441.28;;;13.36;56.61
8039;BME280;4062;49.844;8.120;2022-12-16T03:39:39;98436.00;;;13.36;56.68
8039;BME280;4062;49.844;8.120;2022-12-16T03:41:42;98432.50;;;13.35;56.56
8039;BME280;4062;49.844;8.120;2022-12-16T03:43:43;98433.34;;;13.36;56.71
8039;BME280;4062;49.844;8.120;2022-12-16T03:45:46;98435.16;;;13.35;56.53
8039;BME280;4062;49.844;8.120;2022-12-16T03:47:52;98436.84;;;13.36;56.62
8039;BME280;4062;49.844;8.120;2022-12-16T03:49:55;98440.44;;;13.35;56.56
8039;BME280;4062;49.844;8.120;2022-12-16T03:51:56;98435.06;;;13.37;56.54
8039;BME280;4062;49.844;8.120;2022-12-16T03:53:57;98448.31;;;13.37;56.46
8039;BME280;4062;49.844;8.120;2022-12-16T03:55:58;98438.66;;;13.36;56.71
8039;BME280;4062;49.844;8.120;2022-12-16T03:57:58;98440.44;;;13.35;56.76
8039;BME280;4062;49.844;8.120;2022-12-16T03:59:59;98447.44;;;13.36;56.86
8039;BME280;4062;49.844;8.120;2022-12-16T04:02:00;98444.88;;;13.35;56.75
8039;BME280;4062;49.844;8.120;2022-12-16T04:04:01;98451.06;;;13.35;56.65
8039;BME280;4062;49.844;8.120;2022-12-16T04:06:02;98454.56;;;13.36;56.66
8039;BME280;4062;49.844;8.120;2022-12-16T04:08:03;98462.53;;;13.36;56.41
8039;BME280;4062;49.844;8.120;2022-12-16T04:10:07;98457.22;;;13.36;56.66
8039;BME280;4062;49.844;8.120;2022-12-16T04:12:08;98458.16;;;13.35;56.63
8039;BME280;4062;49.844;8.120;2022-12-16T04:14:28;98462.53;;;13.36;56.89
8039;BME280;4062;49.844;8.120;2022-12-16T04:16:47;98464.34;;;13.35;56.51
8039;BME280;4062;49.844;8.120;2022-12-16T04:19:17;98458.16;;;13.35;56.71
8039;BME280;4062;49.844;8.120;2022-12-16T04:21:37;98458.22;;;13.33;56.71
8039;BME280;4062;49.844;8.120;2022-12-16T04:23:57;98456.44;;;13.34;56.52
8039;BME280;4062;49.844;8.120;2022-12-16T04:26:16;98464.34;;;13.35;56.65
8039;BME280;4062;49.844;8.120;2022-12-16T04:28:20;98463.38;;;13.36;56.71
8039;BME280;4062;49.844;8.120;2022-12-16T04:30:21;98475.00;;;13.34;56.57
8039;BME280;4062;49.844;8.120;2022-12-16T04:32:21;98486.50;;;13.34;56.56
8039;BME280;4062;49.844;8.120;2022-12-16T04:34:22;98475.00;;;13.34;56.59
8039;BME280;4062;49.844;8.120;2022-12-16T04:36:26;98480.25;;;13.35;56.54
8039;BME280;4062;49.844;8.120;2022-12-16T04:38:45;98481.19;;;13.34;56.64
8039;BME280;4062;49.844;8.120;2022-12-16T04:41:05;98480.25;;;13.35;56.57
8039;BME280;4062;49.844;8.120;2022-12-16T04:43:24;98485.56;;;13.35;56.64
8039;BME280;4062;49.844;8.120;2022-12-16T04:45:45;98494.44;;;13.34;56.79
8039;BME280;4062;49.844;8.120;2022-12-16T04:48:04;98497.09;;;13.34;56.50
8039;BME280;4062;49.844;8.120;2022-12-16T04:50:23;98499.75;;;13.34;56.69
8039;BME280;4062;49.844;8.120;2022-12-16T04:52:43;98507.72;;;13.34;56.36
8039;BME280;4062;49.844;8.120;2022-12-16T04:55:02;98507.72;;;13.34;56.55
8039;BME280;4062;49.844;8.120;2022-12-16T04:57:22;98509.44;;;13.35;56.50
8039;BME280;4062;49.844;8.120;2022-12-16T04:59:41;98509.50;;;13.34;56.64
8039;BME280;4062;49.844;8.120;2022-12-16T05:02:01;98508.56;;;13.35;56.66
8039;BME280;4062;49.844;8.120;2022-12-16T05:04:20;98518.31;;;13.34;56.61
8039;BME280;4062;49.844;8.120;2022-12-16T05:06:39;98527.13;;;13.35;56.54
8039;BME280;4062;49.844;8.120;2022-12-16T05:08:58;98524.47;;;13.35;56.77
8039;BME280;4062;49.844;8.120;2022-12-16T05:11:17;98528.94;;;13.34;56.83
8039;BME280;4062;49.844;8.120;2022-12-16T05:13:37;98530.72;;;13.34;56.44
8039;BME280;4062;49.844;8.120;2022-12-16T05:15:56;98526.34;;;13.33;56.49
8039;BME280;4062;49.844;8.120;2022-12-16T05:18:15;98526.34;;;13.33;56.35
8039;BME280;4062;49.844;8.120;2022-12-16T05:20:35;98540.38;;;13.35;56.71
8039;BME280;4062;49.844;8.120;2022-12-16T05:22:55;98540.47;;;13.33;56.48
8039;BME280;4062;49.844;8.120;2022-12-16T05:25:15;98545.78;;;13.33;56.63
8039;BME280;4062;49.844;8.120;2022-12-16T05:27:34;98543.97;;;13.34;56.38
8039;BME280;4062;49.844;8.120;2022-12-16T05:29:54;98547.56;;;13.33;56.64
8039;BME280;4062;49.844;8.120;2022-12-16T05:32:13;98549.38;;;13.32;56.54
8039;BME280;4062;49.844;8.120;2022-12-16T05:34:32;98551.94;;;13.34;56.77
8039;BME280;4062;49.844;8.120;2022-12-16T05:36:51;98563.47;;;13.33;56.59
8039;BME280;4062;49.844;8.120;2022-12-16T05:39:10;98556.41;;;13.33;56.49
8039;BME280;4062;49.844;8.120;2022-12-16T05:41:29;98567.84;;;13.34;56.68
8039;BME280;4062;49.844;8.120;2022-12-16T05:43:48;98567.00;;;13.33;56.50
8039;BME280;4062;49.844;8.120;2022-12-16T05:46:08;98569.66;;;13.33;56.65
8039;BME280;4062;49.844;8.120;2022-12-16T05:48:27;98576.69;;;13.34;56.54
8039;BME280;4062;49.844;8.120;2022-12-16T05:50:46;98582.94;;;13.33;56.63
8039;BME280;4062;49.844;8.120;2022-12-16T05:53:06;98582.94;;;13.33;56.55
8039;BME280;4062;49.844;8.120;2022-12-16T05:55:26;98586.44;;;13.34;56.54
8039;BME280;4062;49.844;8.120;2022-12-16T05:57:51;98590.88;;;13.33;56.67
8039;BME280;4062;49.844;8.120;2022-12-16T06:00:11;98597.03;;;13.34;56.61
8039;BME280;4062;49.844;8.120;2022-12-16T06:02:30;98600.63;;;13.33;56.54
8039;BME280;4062;49.844;8.120;2022-12-16T06:04:49;98607.72;;;13.32;56.64
8039;BME280;4062;49.844;8.120;2022-12-16T06:07:09;98605.94;;;13.33;56.53
8039;BME280;4062;49.844;8.120;2022-12-16T06:09:28;98611.22;;;13.33;56.47
8039;BME280;4062;49.844;8.120;2022-12-16T06:11:47;98614.75;;;13.33;56.65
8039;BME280;4062;49.844;8.120;2022-12-16T06:14:06;98610.38;;;13.32;56.67
8039;BME280;4062;49.844;8.120;2022-12-16T06:16:26;98610.38;;;13.32;56.45
8039;BME280;4062;49.844;8.120;2022-12-16T06:18:45;98612.16;;;13.32;56.60
8039;BME280;4062;49.844;8.120;2022-12-16T06:21:06;98621.84;;;13.33;56.67
8039;BME280;4062;49.844;8.120;2022-12-16T06:23:25;98629.81;;;13.33;56.64
8039;BME280;4062;49.844;8.120;2022-12-16T06:25:44;98623.56;;;13.34;56.43
8039;BME280;4062;49.844;8.120;2022-12-16T06:28:03;98622.72;;;13.33;56.46
8039;BME280;4062;49.844;8.120;2022-12-16T06:30:23;98628.03;;;13.33;56.79
8039;BME280;4062;49.844;8.120;2022-12-16T06:32:42;98641.28;;;13.33;56.62
8039;BME280;4062;49.844;8.120;2022-12-16T06:35:01;98631.59;;;13.32;56.37
8039;BME280;4062;49.844;8.120;2022-12-16T06:37:21;98637.75;;;13.33;56.39
8039;BME280;4062;49.844;8.120;2022-12-16T06:39:40;98637.75;;;13.33;56.50
8039;BME280;4062;49.844;8.120;2022-12-16T06:41:59;98646.59;;;13.33;56.41
8039;BME280;4062;49.844;8.120;2022-12-16T06:44:18;98643.06;;;13.33;56.45
8039;BME280;4062;49.844;8.120;2022-12-16T06:46:37;98646.59;;;13.33;56.62
8039;BME280;4062;49.844;8.120;2022-12-16T06:48:56;98660.72;;;13.34;56.61
8039;BME280;4062;49.844;8.120;2022-12-16T06:51:15;98666.94;;;13.33;56.50
8039;BME280;4062;49.844;8.120;2022-12-16T06:53:34;98667.03;;;13.31;56.50
8039;BME280;4062;49.844;8.120;2022-12-16T06:55:53;98670.47;;;13.33;56.33
8039;BME280;4062;49.844;8.120;2022-12-16T06:58:12;98669.59;;;13.33;56.70
8039;BME280;4062;49.844;8.120;2022-12-16T07:00:32;98677.56;;;13.33;56.52
8039;BME280;4062;49.844;8.120;2022-12-16T07:02:51;98674.91;;;13.33;56.62
8039;BME280;4062;49.844;8.120;2022-12-16T07:05:10;98674.06;;;13.32;56.72
8039;BME280;4062;49.844;8.120;2022-12-16T07:07:29;98682.00;;;13.32;56.52
8039;BME280;4062;49.844;8.120;2022-12-16T07:09:49;98691.69;;;13.33;56.44
8039;BME280;4062;49.844;8.120;2022-12-16T07:12:08;98691.69;;;13.33;56.64
8039;BME280;4062;49.844;8.120;2022-12-16T07:14:30;98702.31;;;13.33;56.42
8039;BME280;4062;49.844;8.120;2022-12-16T07:16:49;98708.56;;;13.32;56.65
8039;BME280;4062;49.844;8.120;2022-12-16T07:19:08;98708.56;;;13.32;56.77
8039;BME280;4062;49.844;8.120;2022-12-16T07:21:27;98712.94;;;13.33;56.56
8039;BME280;4062;49.844;8.120;2022-12-16T07:23:46;98721.81;;;13.32;56.59
8039;BME280;4062;49.844;8.120;2022-12-16T07:26:05;98723.59;;;13.32;56.38
8039;BME280;4062;49.844;8.120;2022-12-16T07:28:24;98729.78;;;13.32;56.67
8039;BME280;4062;49.844;8.120;2022-12-16T07:30:48;98730.69;;;13.31;56.08
8039;BME280;4062;49.844;8.120;2022-12-16T07:33:07;98734.19;;;13.32;56.64
8039;BME280;4062;49.844;8.120;2022-12-16T07:35:26;98733.34;;;13.31;56.45
8039;BME280;4062;49.844;8.120;2022-12-16T07:37:45;98739.47;;;13.33;56.55
8039;BME280;4062;49.844;8.120;2022-12-16T07:40:05;98741.22;;;13.33;56.56
8039;BME280;4062;49.844;8.120;2022-12-16T07:42:24;98741.31;;;13.31;56.42
8039;BME280;4062;49.844;8.120;2022-12-16T07:44:44;98753.66;;;13.32;56.54
8039;BME280;4062;49.844;8.120;2022-12-16T07:47:03;98752.78;;;13.32;56.65
8039;BME280;4062;49.844;8.120;2022-12-16T07:49:22;98758.97;;;13.32;56.49
8039;BME280;4062;49.844;8.120;2022-12-16T07:51:41;98760.72;;;13.32;56.61
8039;BME280;4062;49.844;8.120;2022-12-16T07:54:00;98763.38;;;13.32;56.59
8039;BME280;4062;49.844;8.120;2022-12-16T07:56:19;98769.56;;;13.32;56.64
8039;BME280;4062;49.844;8.120;2022-12-16T07:58:38;98771.34;;;13.32;56.65
8039;BME280;4062;49.844;8.120;2022-12-16T08:00:57;98770.50;;;13.31;56.59
8039;BME280;4062;49.844;8.120;2022-12-16T08:03:18;98778.44;;;13.31;56.74
8039;BME280;4062;49.844;8.120;2022-12-16T08:05:37;98784.59;;;13.32;56.42
8039;BME280;4062;49.844;8.120;2022-12-16T08:07:56;98787.25;;;13.32;56.58
8039;BME280;4062;49.844;8.120;2022-12-16T08:10:15;98792.66;;;13.30;56.59
8039;BME280;4062;49.844;8.120;2022-12-16T08:12:35;98790.78;;;13.32;56.58
8039;BME280;4062;49.844;8.120;2022-12-16T08:14:54;98795.16;;;13.33;56.52
8039;BME280;4062;49.844;8.120;2022-12-16T08:17:13;98787.25;;;13.32;56.53
8039;BME280;4062;49.844;8.120;2022-12-16T08:19:32;98797.88;;;13.32;56.58
8039;BME280;4062;49.844;8.120;2022-12-16T08:21:51;98799.69;;;13.31;56.81
8039;BME280;4062;49.844;8.120;2022-12-16T08:24:10;98807.63;;;13.31;56.53
8039;BME280;4062;49.844;8.120;2022-12-16T08:26:29;98803.25;;;13.30;56.52
8039;BME280;4062;49.844;8.120;2022-12-16T08:28:49;98820.06;;;13.31;56.48
8039;BME280;4062;49.844;8.120;2022-12-16T08:31:08;98819.97;;;13.32;56.56
8039;BME280;4062;49.844;8.120;2022-12-16T08:33:28;98827.06;;;13.32;56.39
8039;BME280;4062;49.844;8.120;2022-12-16T08:35:47;98835.09;;;13.30;56.60
8039;BME280;4062;49.844;8.120;2022-12-16T08:38:06;98837.66;;;13.32;56.47
8039;BME280;4062;49.844;8.120;2022-12-16T08:40:26;98846.59;;;13.31;56.54
8039;BME280;4062;49.844;8.120;2022-12-16T08:42:45;98843.84;;;13.32;56.54
8039;BME280;4062;49.844;8.120;2022-12-16T08:45:05;98842.97;;;13.32;56.50
8039;BME280;4062;49.844;8.120;2022-12-16T08:47:25;98849.16;;;13.32;56.66
8039;BME280;4062;49.844;8.120;2022-12-16T08:49:44;98848.28;;;13.32;56.64
8039;BME280;4062;49.844;8.120;2022-12-16T08:52:03;98848.28;;;13.32;56.64
8039;BME280;4062;49.844;8.120;2022-12-16T08:54:22;98849.25;;;13.31;56.74
8039;BME280;4062;49.844;8.120;2022-12-16T08:56:42;98858.91;;;13.32;56.60
8039;BME280;4062;49.844;8.120;2022-12-16T08:59:01;98858.03;;;13.31;56.45
8039;BME280;4062;49.844;8.120;2022-12-16T09:01:20;98861.53;;;13.32;56.43
8039;BME280;4062;49.844;8.120;2022-12-16T09:03:40;98863.34;;;13.31;56.50
8039;BME280;4062;49.844;8.120;2022-12-16T09:06:00;98864.19;;;13.32;56.50
8039;BME280;4062;49.844;8.120;2022-12-16T09:08:19;98866.00;;;13.31;56.40
8039;BME280;4062;49.844;8.120;2022-12-16T09:10:38;98868.66;;;13.31;56.49
8039;BME280;4062;49.844;8.120;2022-12-16T09:13:12;98876.53;;;13.33;56.45
8039;BME280;4062;49.844;8.120;2022-12-16T09:15:32;98879.28;;;13.31;56.46
8039;BME280;4062;49.844;8.120;2022-12-16T09:17:55;98885.50;;;13.30;56.59
8039;BME280;4062;49.844;8.120;2022-12-16T09:20:34;98887.16;;;13.33;56.69
8039;BME280;4062;49.844;8.120;2022-12-16T09:22:53;98890.72;;;13.32;56.67
8039;BME280;4062;49.844;8.120;2022-12-16T09:25:12;98891.63;;;13.32;56.42
8039;BME280;4062;49.844;8.120;2022-12-16T09:27:31;98881.94;;;13.31;56.63
8039;BME280;4062;49.844;8.120;2022-12-16T09:29:50;98886.31;;;13.32;56.49
8039;BME280;4062;49.844;8.120;2022-12-16T09:32:09;98885.50;;;13.30;56.48
8039;BME280;4062;49.844;8.120;2022-12-16T09:34:28;98886.38;;;13.31;56.64
8039;BME280;4062;49.844;8.120;2022-12-16T09:36:47;98892.53;;;13.31;56.52
8039;BME280;4062;49.844;8.120;2022-12-16T09:39:07;98892.53;;;13.31;56.57
8039;BME280;4062;49.844;8.120;2022-12-16T09:44:04;98894.34;;;13.31;56.55
8039;BME280;4062;49.844;8.120;2022-12-16T09:46:52;98896.13;;;13.30;56.65
8039;BME280;4062;49.844;8.120;2022-12-16T09:49:47;98901.34;;;13.32;56.66
8039;BME280;4062;49.844;8.120;2022-12-16T09:52:14;98899.66;;;13.31;56.39
8039;BME280;4062;49.844;8.120;2022-12-16T09:54:46;98900.50;;;13.31;56.47
8039;BME280;4062;49.844;8.120;2022-12-16T09:57:06;98903.16;;;13.31;56.46
8039;BME280;4062;49.844;8.120;2022-12-16T09:59:53;98905.81;;;13.31;56.30
8039;BME280;4062;49.844;8.120;2022-12-16T10:02:17;98909.38;;;13.30;56.42
8039;BME280;4062;49.844;8.120;2022-12-16T10:04:37;98907.59;;;13.31;56.47
8039;BME280;4062;49.844;8.120;2022-12-16T10:06:59;98913.75;;;13.31;56.53
8039;BME280;4062;49.844;8.120;2022-12-16T10:20:51;98914.69;;;13.30;56.61
8039;BME280;4062;49.844;8.120;2022-12-16T10:26:13;98914.69;;;13.30;56.42
8039;BME280;4062;49.844;8.120;2022-12-16T10:28:45;98919.16;;;13.29;56.39
8039;BME280;4062;49.844;8.120;2022-12-16T10:31:14;98915.63;;;13.29;56.56
8039;BME280;4062;49.844;8.120;2022-12-16T10:33:34;98916.50;;;13.29;56.59
8039;BME280;4062;49.844;8.120;2022-12-16T10:35:53;98916.50;;;13.29;56.53
8039;BME280;4062;49.844;8.120;2022-12-16T10:38:37;98907.66;;;13.29;56.49
8039;BME280;4062;49.844;8.120;2022-12-16T10:40:59;98917.34;;;13.30;56.45
8039;BME280;4062;49.844;8.120;2022-12-16T10:45:51;98916.41;;;13.31;56.40
8039;BME280;4062;49.844;8.120;2022-12-16T10:48:12;98914.69;;;13.30;56.45
8039;BME280;4062;49.844;8.120;2022-12-16T10:50:31;98917.34;;;13.30;56.50
8039;BME280;4062;49.844;8.120;2022-12-16T10:53:11;98927.94;;;13.30;56.46
8039;BME280;4062;49.844;8.120;2022-12-16T10:58:16;98927.94;;;13.30;56.50
8039;BME280;4062;49.844;8.120;2022-12-16T11:00:50;98929.75;;;13.29;56.46
8039;BME280;4062;49.844;8.120;2022-12-16T11:03:23;98932.34;;;13.31;56.60
8039;BME280;4062;49.844;8.120;2022-12-16T11:05:43;98927.94;;;13.30;56.37
8039;BME280;4062;49.844;8.120;2022-12-16T11:08:32;98931.50;;;13.31;56.57
8039;BME280;4062;49.844;8.120;2022-12-16T11:10:51;98926.22;;;13.29;56.36
8039;BME280;4062;49.844;8.120;2022-12-16T11:13:18;98933.25;;;13.30;56.33
8039;BME280;4062;49.844;8.120;2022-12-16T11:15:38;98927.94;;;13.30;56.21
8039;BME280;4062;49.844;8.120;2022-12-16T11:18:04;98930.59;;;13.30;56.55
8039;BME280;4062;49.844;8.120;2022-12-16T11:20:25;98915.56;;;13.31;56.19
8039;BME280;4062;49.844;8.120;2022-12-16T11:22:44;98926.19;;;13.31;56.77
8039;BME280;4062;49.844;8.120;2022-12-16T11:27:35;98925.31;;;13.30;56.51
8039;BME280;4062;49.844;8.120;2022-12-16T11:30:00;98937.63;;;13.31;56.52
8039;BME280;4062;49.844;8.120;2022-12-16T11:32:24;98936.78;;;13.31;56.46
8039;BME280;4062;49.844;8.120;2022-12-16T11:34:54;98942.09;;;13.31;56.44
8039;BME280;4062;49.844;8.120;2022-12-16T11:37:14;98939.44;;;13.31;56.50
8039;BME280;4062;49.844;8.120;2022-12-16T11:39:47;98943.03;;;13.29;56.71
8039;BME280;4062;49.844;8.120;2022-12-16T11:42:15;98937.63;;;13.31;56.81
8039;BME280;4062;49.844;8.120;2022-12-16T11:44:48;98942.09;;;13.31;56.57
8039;BME280;4062;49.844;8.120;2022-12-16T11:48:10;98943.88;;;13.30;56.64
8039;BME280;4062;49.844;8.120;2022-12-16T11:50:04;98949.09;;;13.32;56.53
8039;BME280;4062;49.844;8.120;2022-12-16T11:52:27;98950.91;;;13.31;56.67
8039;BME280;4062;49.844;8.120;2022-12-16T11:57:52;98958.88;;;13.31;56.67
8039;BME280;4062;49.844;8.120;2022-12-16T12:00:16;98959.72;;;13.32;56.72
8039;BME280;4062;49.844;8.120;2022-12-16T12:05:42;98970.41;;;13.30;56.71
8039;BME280;4062;49.844;8.120;2022-12-16T12:08:12;98963.31;;;13.31;56.61
8039;BME280;4062;49.844;8.120;2022-12-16T12:10:48;98965.03;;;13.32;56.57
8039;BME280;4062;49.844;8.120;2022-12-16T12:16:20;98962.44;;;13.30;56.76
8039;BME280;4062;49.844;8.120;2022-12-16T12:19:05;98970.31;;;13.32;56.61
8039;BME280;4062;49.844;8.120;2022-12-16T12:21:58;98969.41;;;13.33;56.59
8039;BME280;4062;49.844;8.120;2022-12-16T12:24:51;98966.75;;;13.33;56.52
8039;BME280;4062;49.844;8.120;2022-12-16T12:27:43;98972.13;;;13.31;56.58
8039;BME280;4062;49.844;8.120;2022-12-16T12:30:12;98975.63;;;13.32;56.60
8039;BME280;4062;49.844;8.120;2022-12-16T12:36:20;98993.34;;;13.31;56.63
8039;BME280;4062;49.844;8.120;2022-12-16T12:41:40;98989.84;;;13.31;56.57
8039;BME280;4062;49.844;8.120;2022-12-16T12:44:13;98998.66;;;13.31;56.73
8039;BME280;4062;49.844;8.120;2022-12-16T12:47:04;98996.00;;;13.31;56.64
8039;BME280;4062;49.844;8.120;2022-12-16T12:49:46;98996.84;;;13.32;56.53
8039;BME280;4062;49.844;8.120;2022-12-16T12:55:27;98995.09;;;13.32;56.65
8039;BME280;4062;49.844;8.120;2022-12-16T12:57:54;98995.09;;;13.32;56.65
8039;BME280;4062;49.844;8.120;2022-12-16T13:00:24;98996.84;;;13.32;56.60
8039;BME280;4062;49.844;8.120;2022-12-16T13:05:45;99008.34;;;13.32;56.57
8039;BME280;4062;49.844;8.120;2022-12-16T13:11:11;99007.47;;;13.32;56.59
8039;BME280;4062;49.844;8.120;2022-12-16T13:13:34;99011.06;;;13.31;56.60
8039;BME280;4062;49.844;8.120;2022-12-16T13:15:53;99010.13;;;13.32;56.43
8039;BME280;4062;49.844;8.120;2022-12-16T13:18:38;99015.50;;;13.30;56.64
8039;BME280;4062;49.844;8.120;2022-12-16T13:20:58;99019.03;;;13.31;56.75
8039;BME280;4062;49.844;8.120;2022-12-16T13:25:52;99029.59;;;13.32;56.73
8039;BME280;4062;49.844;8.120;2022-12-16T13:28:39;99031.44;;;13.30;56.46
8039;BME280;4062;49.844;8.120;2022-12-16T13:31:03;99034.97;;;13.31;56.48
8039;BME280;4062;49.844;8.120;2022-12-16T13:33:29;99032.31;;;13.31;56.47
8039;BME280;4062;49.844;8.120;2022-12-16T13:35:55;99038.47;;;13.31;56.46
8039;BME280;4062;49.844;8.120;2022-12-16T13:38:20;99049.94;;;13.32;56.65